Conisbrough, United Kingdom
Current Conditions -  °F | °C
As of 9:20 PM on Saturday 22 Nov 2014 (Local Time) from EGCN Reporting Station
Light Fog Light Fog  
Wind Chill: 44°   Ceiling: Unl
Heat Index: 46°   Visibility: 6mi
Dew Point: 45°   Wind: 5mph
Humidity: 93%   Direction: 230°SW
Pressure: 29.97"   Gusts: NA
Location:  53.48°N, 1.23°W
Report Text: EGCN 222120Z 23004KT 9999 MIFG NSC 08/07 Q1015
Loading
Personal Weather Stations






























Interactive Weather Map New forecast layout! Learn more

10-Day Weather Forecast

Advertisements
Track Severe Weather on mobile